createdAt,value
2023-02-15T00:02:02.289Z,17.30
2023-02-15T00:04:47.281Z,17.67
2023-02-15T00:07:19.094Z,16.50
2023-02-15T00:09:49.694Z,17.58
2023-02-15T00:12:17.552Z,18.38
2023-02-15T00:14:44.890Z,17.08
2023-02-15T00:17:12.005Z,17.10
2023-02-15T00:19:38.984Z,17.58
2023-02-15T00:22:05.877Z,17.02
2023-02-15T00:24:33.504Z,18.60
2023-02-15T00:27:00.347Z,16.88
2023-02-15T00:29:27.533Z,16.70
2023-02-15T00:31:54.611Z,17.00
2023-02-15T00:34:26.185Z,16.30
2023-02-15T00:36:53.346Z,16.67
2023-02-15T00:39:20.622Z,17.63
2023-02-15T00:41:48.140Z,16.13
2023-02-15T00:44:15.532Z,18.00
2023-02-15T00:46:42.490Z,16.60
2023-02-15T00:49:11.340Z,15.57
2023-02-15T00:51:38.623Z,17.02
2023-02-15T00:54:05.738Z,16.73
2023-02-15T00:56:32.716Z,16.48
2023-02-15T00:58:59.655Z,17.08
2023-02-15T01:01:27.013Z,15.32
2023-02-15T01:03:54.281Z,16.02
2023-02-15T01:06:21.342Z,15.52
2023-02-15T01:08:48.579Z,15.15
2023-02-15T01:11:50.260Z,15.52
2023-02-15T01:14:09.730Z,15.17
2023-02-15T01:16:39.041Z,15.75
2023-02-15T01:19:06.969Z,14.93
2023-02-15T01:21:35.558Z,14.95
2023-02-15T01:24:03.360Z,15.57
2023-02-15T01:26:30.450Z,16.40
2023-02-15T01:29:00.893Z,13.82
2023-02-15T01:31:27.900Z,15.07
2023-02-15T01:33:54.863Z,15.18
2023-02-15T01:36:21.746Z,16.42
2023-02-15T01:38:48.805Z,14.05
2023-02-15T01:41:21.601Z,16.17
2023-02-15T01:44:02.749Z,15.23
2023-02-15T01:46:45.608Z,14.85
2023-02-15T01:49:20.649Z,15.07
2023-02-15T01:51:53.692Z,15.63
2023-02-15T01:54:28.752Z,15.90
2023-02-15T01:57:03.645Z,14.75
2023-02-15T01:59:33.466Z,16.88
2023-02-15T02:02:03.019Z,15.80
2023-02-15T02:04:41.100Z,15.77
2023-02-15T02:07:10.582Z,14.18
2023-02-15T02:09:38.730Z,14.65
2023-02-15T02:12:06.233Z,16.33
2023-02-15T02:14:33.402Z,14.80
2023-02-15T02:17:28.534Z,15.45
2023-02-15T02:19:58.506Z,14.90
2023-02-15T02:22:50.351Z,13.77
2023-02-15T02:25:50.692Z,14.18
2023-02-15T02:28:55.049Z,13.45
2023-02-15T02:34:23.630Z,13.52
2023-02-15T02:37:02.609Z,12.90
2023-02-15T02:39:35.492Z,13.65
2023-02-15T02:42:08.404Z,13.23
2023-02-15T02:44:45.537Z,13.85
2023-02-15T02:47:21.610Z,12.65
2023-02-15T02:49:49.581Z,13.32
2023-02-15T02:52:36.877Z,13.93
2023-02-15T02:55:08.164Z,13.45
2023-02-15T02:57:38.272Z,13.98
2023-02-15T03:00:07.336Z,15.68
2023-02-15T03:02:39.501Z,12.25
2023-02-15T03:05:13.057Z,13.65
2023-02-15T03:07:42.241Z,12.88
2023-02-15T03:10:11.040Z,12.85
2023-02-15T03:12:41.676Z,13.50
2023-02-15T03:27:53.645Z,11.35
2023-02-15T03:30:24.285Z,11.52
2023-02-15T03:32:52.778Z,11.15
2023-02-15T03:35:25.690Z,11.10
2023-02-15T03:37:57.506Z,12.77
2023-02-15T03:40:48.650Z,11.80
2023-02-15T03:43:28.837Z,10.68
2023-02-15T03:46:01.470Z,10.85
2023-02-15T03:48:37.831Z,11.18
2023-02-15T03:51:29.138Z,11.85
2023-02-15T03:53:58.382Z,11.88
2023-02-15T03:56:25.782Z,11.70
2023-02-15T03:59:11.038Z,12.30
2023-02-15T04:02:00.021Z,9.90
2023-02-15T04:04:40.044Z,10.52
2023-02-15T04:07:09.415Z,11.27
2023-02-15T04:09:55.402Z,10.23
2023-02-15T04:12:22.459Z,11.10
2023-02-15T04:15:07.782Z,12.98
2023-02-15T04:17:36.781Z,10.73
2023-02-15T04:20:22.190Z,10.70
2023-02-15T04:23:07.534Z,10.52
2023-02-15T04:25:34.360Z,10.52
2023-02-15T04:28:01.205Z,10.55
2023-02-15T04:30:28.158Z,11.70
2023-02-15T04:32:58.214Z,9.98
2023-02-15T04:35:25.505Z,11.07
2023-02-15T04:37:52.371Z,11.35
2023-02-15T04:40:19.843Z,10.57
2023-02-15T04:42:50.109Z,11.77
2023-02-15T04:45:18.211Z,10.88
2023-02-15T04:47:45.209Z,10.32
2023-02-15T04:50:12.379Z,11.10
2023-02-15T04:52:40.071Z,11.13
2023-02-15T04:55:07.561Z,12.95
2023-02-15T04:57:34.418Z,11.02
2023-02-15T05:00:01.576Z,11.35
2023-02-15T05:02:28.547Z,10.68
2023-02-15T05:04:55.473Z,11.15
2023-02-15T05:07:22.351Z,11.32
2023-02-15T05:09:49.112Z,10.93
2023-02-15T05:12:15.952Z,10.55
2023-02-15T05:14:42.879Z,11.77
2023-02-15T05:17:09.844Z,10.50
2023-02-15T05:19:36.669Z,12.07
2023-02-15T05:22:03.505Z,11.05
2023-02-15T05:24:48.889Z,10.63
2023-02-15T05:27:34.591Z,11.18
2023-02-15T05:30:01.547Z,10.30
2023-02-15T05:32:28.647Z,10.73
2023-02-15T05:34:55.546Z,10.75
2023-02-15T05:37:22.420Z,10.82
2023-02-15T05:39:49.240Z,11.18
2023-02-15T05:42:16.130Z,11.35
2023-02-15T05:44:43.170Z,11.07
2023-02-15T05:47:10.014Z,11.38
2023-02-15T05:49:37.134Z,12.82
2023-02-15T05:52:04.756Z,11.60
2023-02-15T05:54:31.895Z,11.63
2023-02-15T05:56:58.854Z,11.65
2023-02-15T05:59:25.758Z,12.23
2023-02-15T06:01:52.575Z,10.85
2023-02-15T06:04:19.499Z,12.48
2023-02-15T06:06:46.405Z,13.70
2023-02-15T06:09:14.297Z,13.50
2023-02-15T06:11:41.486Z,15.95
2023-02-15T06:14:08.308Z,15.32
2023-02-15T06:16:35.076Z,13.07
2023-02-15T06:19:02.875Z,13.48
2023-02-15T06:21:31.344Z,13.27
2023-02-15T06:23:58.588Z,13.07
2023-02-15T06:26:25.552Z,14.70
2023-02-15T06:28:52.448Z,15.45
2023-02-15T06:31:19.481Z,15.30
2023-02-15T06:33:46.420Z,14.75
2023-02-15T06:36:13.754Z,17.05
2023-02-15T06:38:40.699Z,18.40
2023-02-15T06:41:07.620Z,16.45
2023-02-15T06:43:35.337Z,15.57
2023-02-15T06:46:02.510Z,16.75
2023-02-15T06:48:29.510Z,16.73
2023-02-15T06:50:56.378Z,16.83
2023-02-15T06:53:23.323Z,17.88
2023-02-15T06:55:50.316Z,17.15
2023-02-15T06:58:17.455Z,18.33
2023-02-15T07:00:44.274Z,18.15
2023-02-15T07:03:15.365Z,18.30
2023-02-15T07:05:42.227Z,17.25
2023-02-15T07:08:09.117Z,18.33
2023-02-15T07:10:35.990Z,16.33
2023-02-15T07:13:02.849Z,18.45
2023-02-15T07:15:30.681Z,16.58
2023-02-15T07:17:59.677Z,16.60
2023-02-15T07:20:26.776Z,17.88
2023-02-15T07:22:53.630Z,17.60
2023-02-15T07:25:20.726Z,18.23
2023-02-15T07:27:47.923Z,18.23
2023-02-15T07:30:17.082Z,17.35
2023-02-15T07:33:05.071Z,17.10
2023-02-15T07:35:33.143Z,18.30
2023-02-15T07:38:00.034Z,17.85
2023-02-15T07:40:27.197Z,17.30
2023-02-15T07:42:55.708Z,18.55
2023-02-15T07:45:22.940Z,16.77
2023-02-15T07:47:50.056Z,17.25
2023-02-15T07:50:17.062Z,16.05
2023-02-15T07:52:44.013Z,17.05
2023-02-15T07:55:13.822Z,17.50
2023-02-15T07:57:48.241Z,17.63
2023-02-15T08:02:48.329Z,17.83
2023-02-15T08:05:15.344Z,17.17
2023-02-15T08:07:42.195Z,17.08
2023-02-15T08:10:09.296Z,17.67
2023-02-15T08:12:36.205Z,17.63
2023-02-15T08:15:04.123Z,17.17
2023-02-15T08:17:31.009Z,17.75
2023-02-15T08:19:57.871Z,20.20
2023-02-15T08:22:25.626Z,17.48
2023-02-15T08:24:52.445Z,21.35
2023-02-15T08:27:19.330Z,18.73
2023-02-15T08:29:46.204Z,17.10
2023-02-15T08:32:13.450Z,16.73
2023-02-15T08:34:42.860Z,17.42
2023-02-15T08:37:10.471Z,17.85
2023-02-15T08:39:37.905Z,18.65
2023-02-15T08:42:05.001Z,17.13
2023-02-15T08:44:31.934Z,18.02
2023-02-15T08:47:03.889Z,17.70
2023-02-15T08:49:31.025Z,17.90
2023-02-15T08:51:57.859Z,16.98
2023-02-15T08:54:24.899Z,17.67
2023-02-15T08:56:52.011Z,17.15
2023-02-15T08:59:21.748Z,17.83
2023-02-15T09:01:51.117Z,17.08
2023-02-15T09:04:18.400Z,16.63
2023-02-15T09:06:50.230Z,16.77
2023-02-15T09:09:19.166Z,17.05
2023-02-15T09:11:48.833Z,15.73
2023-02-15T09:14:18.343Z,20.00
2023-02-15T09:16:49.689Z,17.10
2023-02-15T09:19:19.006Z,17.25
2023-02-15T09:21:46.479Z,16.65
2023-02-15T09:24:15.520Z,17.23
2023-02-15T09:26:44.670Z,18.33
2023-02-15T09:29:13.400Z,16.75
2023-02-15T09:31:45.473Z,17.52
2023-02-15T09:34:18.310Z,17.58
2023-02-15T09:36:45.922Z,17.58
2023-02-15T09:39:18.604Z,20.58
2023-02-15T09:41:57.550Z,19.13
2023-02-15T09:44:27.327Z,17.77
2023-02-15T09:47:19.218Z,17.35
2023-02-15T09:50:04.521Z,17.42
2023-02-15T09:53:28.719Z,17.00
2023-02-15T09:56:07.493Z,19.23
2023-02-15T09:58:49.495Z,17.60
2023-02-15T10:01:29.841Z,17.67
2023-02-15T10:04:21.645Z,18.23
2023-02-15T10:07:23.243Z,17.40
2023-02-15T10:09:55.846Z,18.27
2023-02-15T10:12:37.539Z,18.02
2023-02-15T10:15:25.422Z,17.95
2023-02-15T10:18:30.720Z,18.92
2023-02-15T10:21:40.415Z,17.75
2023-02-15T10:24:32.068Z,19.33
2023-02-15T10:27:09.014Z,19.50
2023-02-15T10:29:43.426Z,17.75
2023-02-15T10:34:58.351Z,18.48
2023-02-15T10:37:54.672Z,17.60
2023-02-15T10:40:21.612Z,18.85
2023-02-15T10:42:51.367Z,18.73
2023-02-15T10:45:42.977Z,19.75
2023-02-15T10:48:27.919Z,19.05
2023-02-15T10:51:04.361Z,18.70
2023-02-15T10:53:53.118Z,18.45
2023-02-15T10:56:41.248Z,19.30
2023-02-15T10:59:16.547Z,19.88
2023-02-15T11:01:57.264Z,18.67
2023-02-15T11:04:52.375Z,19.63
2023-02-15T11:07:34.843Z,18.85
2023-02-15T11:10:01.707Z,19.42
2023-02-15T11:12:31.965Z,20.00
2023-02-15T11:15:05.577Z,19.98
2023-02-15T11:17:40.751Z,19.25
2023-02-15T11:20:26.790Z,20.48
2023-02-15T11:22:54.529Z,19.40
2023-02-15T11:25:26.961Z,20.55
2023-02-15T11:27:55.617Z,19.13
2023-02-15T11:30:25.071Z,19.00
2023-02-15T11:32:57.231Z,18.17
2023-02-15T11:35:33.518Z,20.55
2023-02-15T11:38:24.506Z,18.02
2023-02-15T11:40:58.578Z,18.73
2023-02-15T11:43:35.810Z,18.85
2023-02-15T11:46:02.845Z,18.40
2023-02-15T11:48:32.852Z,18.90
2023-02-15T11:51:01.213Z,19.70
2023-02-15T11:53:33.094Z,19.48
2023-02-15T11:56:01.515Z,19.67
2023-02-15T11:58:55.784Z,18.77
2023-02-15T12:01:37.924Z,19.25
2023-02-15T12:04:10.506Z,19.27
2023-02-15T12:06:45.402Z,18.88
2023-02-15T12:09:46.930Z,18.20
2023-02-15T12:12:27.379Z,20.90
2023-02-15T12:14:56.612Z,21.35
2023-02-15T12:17:27.030Z,19.60
2023-02-15T12:19:57.707Z,17.85
2023-02-15T12:22:31.442Z,17.30
2023-02-15T12:25:04.909Z,19.70
2023-02-15T12:27:35.951Z,19.20
2023-02-15T12:30:16.160Z,19.35
2023-02-15T12:32:57.567Z,18.00
2023-02-15T12:35:33.709Z,18.38
2023-02-15T12:38:25.419Z,18.45
2023-02-15T12:41:00.452Z,21.33
2023-02-15T12:43:32.451Z,19.00
2023-02-15T12:46:37.918Z,18.25
2023-02-15T12:49:20.454Z,18.67
2023-02-15T12:52:21.241Z,18.60
2023-02-15T12:54:49.279Z,20.92
2023-02-15T12:57:24.399Z,18.52
2023-02-15T12:59:58.034Z,19.02
2023-02-15T13:02:44.024Z,20.38
2023-02-15T13:05:10.800Z,20.20
2023-02-15T13:07:38.233Z,19.33
2023-02-15T13:10:05.872Z,19.17
2023-02-15T13:12:33.166Z,20.70
2023-02-15T13:15:02.703Z,21.63
2023-02-15T13:17:35.572Z,21.15
2023-02-15T13:20:08.669Z,21.60
2023-02-15T13:22:44.770Z,20.05
2023-02-15T13:25:24.286Z,19.77
2023-02-15T13:27:57.913Z,20.67
2023-02-15T13:30:36.500Z,22.52
2023-02-15T13:33:07.128Z,19.90
2023-02-15T13:35:44.759Z,21.55
2023-02-15T13:38:19.137Z,22.42
2023-02-15T13:43:40.611Z,21.63
2023-02-15T13:46:07.505Z,20.48
2023-02-15T13:49:00.495Z,20.67
2023-02-15T13:51:45.557Z,21.38
2023-02-15T13:54:40.042Z,21.50
2023-02-15T13:57:09.994Z,21.80
2023-02-15T13:59:46.229Z,20.63
2023-02-15T14:02:13.024Z,20.08
2023-02-15T14:05:11.157Z,20.88
2023-02-15T14:08:04.053Z,21.10
2023-02-15T14:10:42.960Z,22.40
2023-02-15T14:13:54.405Z,20.88
2023-02-15T14:17:05.742Z,24.33
2023-02-15T14:19:39.191Z,21.27
2023-02-15T14:22:24.282Z,20.95
2023-02-15T14:25:29.884Z,21.75
2023-02-15T14:27:59.957Z,23.63
2023-02-15T14:30:49.718Z,20.90
2023-02-15T14:33:33.232Z,23.15
2023-02-15T14:36:03.977Z,20.60
2023-02-15T14:38:58.692Z,22.52
2023-02-15T14:41:54.523Z,23.17
2023-02-15T14:44:38.851Z,23.02
2023-02-15T14:47:37.836Z,23.83
2023-02-15T14:50:38.474Z,21.05
2023-02-15T14:53:32.049Z,22.98
2023-02-15T14:56:19.282Z,21.27
2023-02-15T14:58:55.073Z,20.90
2023-02-15T15:01:31.980Z,19.88
2023-02-15T15:04:22.762Z,19.95
2023-02-15T15:07:04.921Z,20.25
2023-02-15T15:09:34.778Z,20.20
2023-02-15T15:12:28.368Z,19.50
2023-02-15T15:29:54.419Z,21.80
2023-02-15T15:32:30.166Z,22.20
2023-02-15T15:35:26.237Z,20.65
2023-02-15T15:38:02.077Z,22.15
2023-02-15T15:40:43.186Z,21.38
2023-02-15T15:43:35.031Z,24.90
2023-02-15T15:46:23.073Z,25.75
2023-02-15T15:48:49.981Z,24.63
2023-02-15T15:51:28.354Z,24.92
2023-02-15T15:53:56.244Z,24.55
2023-02-15T15:56:32.374Z,26.17
2023-02-15T15:59:03.284Z,29.65
2023-02-15T16:01:32.531Z,29.75
2023-02-15T16:04:00.358Z,32.67
2023-02-15T16:06:34.185Z,32.45
2023-02-15T16:09:16.750Z,32.90
2023-02-15T16:11:44.363Z,34.47
2023-02-15T16:14:18.408Z,37.10
2023-02-15T16:16:52.298Z,33.20
2023-02-15T16:19:27.018Z,31.23
2023-02-15T16:21:55.336Z,28.55
2023-02-15T16:24:31.746Z,25.33
2023-02-15T16:27:19.712Z,23.23
2023-02-15T16:29:46.852Z,23.65
2023-02-15T16:32:24.318Z,24.40
2023-02-15T16:35:03.181Z,23.90
2023-02-15T16:37:37.668Z,24.45
2023-02-15T16:42:31.468Z,29.63
2023-02-15T16:45:04.288Z,34.72
2023-02-15T16:47:35.105Z,33.85
2023-02-15T16:50:05.582Z,30.23
2023-02-15T16:52:32.954Z,29.67
2023-02-15T16:55:07.520Z,28.05
2023-02-15T16:57:38.422Z,27.25
2023-02-15T17:00:08.841Z,27.17
2023-02-15T17:02:56.523Z,24.25
2023-02-15T17:05:23.713Z,27.20
2023-02-15T17:08:07.961Z,26.20
2023-02-15T17:10:37.884Z,25.13
2023-02-15T17:13:12.770Z,25.08
2023-02-15T17:15:59.438Z,25.75
2023-02-15T17:18:44.467Z,23.60
2023-02-15T17:21:14.975Z,23.10
2023-02-15T17:23:45.991Z,24.38
2023-02-15T17:26:20.699Z,23.20
2023-02-15T17:29:02.438Z,22.83
2023-02-15T17:31:34.346Z,22.65
2023-02-15T17:34:02.714Z,23.10
2023-02-15T17:36:31.553Z,23.35
2023-02-15T17:38:58.485Z,22.70
2023-02-15T17:41:35.213Z,22.88
2023-02-15T17:44:04.083Z,25.30
2023-02-15T17:46:35.946Z,27.23
2023-02-15T17:49:03.601Z,26.45
2023-02-15T17:51:32.241Z,29.70
2023-02-15T17:54:17.753Z,28.33
2023-02-15T17:56:44.666Z,26.65
2023-02-15T17:59:12.614Z,28.50
2023-02-15T18:02:04.609Z,25.30
2023-02-15T18:04:55.698Z,29.90
2023-02-15T18:07:41.141Z,69.18
2023-02-15T18:10:37.990Z,27.33
2023-02-15T18:13:05.146Z,26.05
2023-02-15T18:15:32.224Z,25.92
2023-02-15T18:17:59.217Z,24.85
2023-02-15T18:20:30.882Z,26.85
2023-02-15T18:22:57.770Z,25.65
2023-02-15T18:25:25.773Z,25.85
2023-02-15T18:27:54.905Z,26.98
2023-02-15T18:30:24.567Z,27.77
2023-02-15T18:32:54.102Z,27.55
2023-02-15T18:35:24.734Z,26.92
2023-02-15T18:37:53.535Z,27.77
2023-02-15T18:40:23.126Z,26.45
2023-02-15T18:42:50.053Z,27.05
2023-02-15T18:45:28.769Z,27.65
2023-02-15T18:47:55.760Z,29.25
2023-02-15T18:50:24.158Z,27.63
2023-02-15T18:52:51.664Z,31.90
2023-02-15T18:55:21.265Z,30.05
2023-02-15T18:57:51.150Z,28.70
2023-02-15T19:00:19.555Z,29.60
2023-02-15T19:02:46.931Z,32.13
2023-02-15T19:05:15.025Z,39.38
2023-02-15T19:07:43.690Z,36.58
2023-02-15T19:10:16.795Z,32.85
2023-02-15T19:12:44.332Z,29.75
2023-02-15T19:15:19.357Z,28.52
2023-02-15T19:17:46.877Z,27.77
2023-02-15T19:20:19.648Z,25.70
2023-02-15T19:22:51.964Z,26.08
2023-02-15T19:25:30.362Z,26.23
2023-02-15T19:27:58.413Z,31.27
2023-02-15T19:30:30.810Z,31.85
2023-02-15T19:32:59.016Z,28.98
2023-02-15T19:35:30.476Z,34.20
2023-02-15T19:37:59.696Z,31.83
2023-02-15T19:40:29.719Z,29.52
2023-02-15T19:42:57.452Z,30.15
2023-02-15T19:45:27.613Z,31.90
2023-02-15T19:47:55.308Z,132.40
2023-02-15T19:50:28.384Z,38.55
2023-02-15T19:52:57.543Z,29.67
2023-02-15T19:55:25.721Z,29.40
2023-02-15T19:57:54.226Z,30.50
2023-02-15T20:00:24.313Z,29.45
2023-02-15T20:02:51.787Z,28.77
2023-02-15T20:05:19.664Z,29.08
2023-02-15T20:07:52.097Z,28.27
2023-02-15T20:10:23.234Z,25.10
2023-02-15T20:12:50.741Z,24.65
2023-02-15T20:15:28.701Z,28.73
2023-02-15T20:17:57.304Z,24.23
2023-02-15T20:20:30.387Z,24.98
2023-02-15T20:22:57.509Z,24.23
2023-02-15T20:25:27.944Z,20.65
2023-02-15T20:27:55.804Z,21.73
2023-02-15T20:30:25.327Z,20.20
2023-02-15T20:32:52.289Z,21.40
2023-02-15T20:35:24.489Z,22.58
2023-02-15T20:37:56.355Z,22.33
2023-02-15T20:40:26.875Z,24.38
2023-02-15T20:42:53.766Z,43.15
2023-02-15T20:45:26.610Z,43.22
2023-02-15T20:47:54.050Z,23.75
2023-02-15T20:50:26.492Z,24.08
2023-02-15T20:52:55.968Z,24.65
2023-02-15T20:55:25.827Z,24.23
2023-02-15T20:57:53.044Z,24.42
2023-02-15T21:00:29.422Z,23.92
2023-02-15T21:02:58.926Z,25.27
2023-02-15T21:05:32.846Z,24.52
2023-02-15T21:08:00.416Z,25.80
2023-02-15T21:10:30.130Z,29.73
2023-02-15T21:12:59.900Z,30.83
2023-02-15T21:15:35.897Z,35.10
2023-02-15T21:18:05.773Z,38.58
2023-02-15T21:20:35.369Z,40.97
2023-02-15T21:23:05.105Z,38.95
2023-02-15T21:25:36.760Z,40.35
2023-02-15T21:28:05.640Z,41.05
2023-02-15T21:30:32.545Z,39.63
2023-02-15T21:32:59.408Z,39.03
2023-02-15T21:35:28.357Z,39.72
2023-02-15T21:37:56.401Z,38.55
2023-02-15T21:40:29.439Z,40.50
2023-02-15T21:43:16.504Z,40.20
2023-02-15T21:45:58.504Z,38.33
2023-02-15T21:48:25.577Z,40.88
2023-02-15T21:51:11.372Z,38.40
2023-02-15T21:53:45.957Z,40.65
2023-02-15T21:58:41.434Z,37.42
2023-02-15T22:01:20.567Z,120.47
2023-02-15T22:03:47.730Z,36.72
2023-02-15T22:06:14.644Z,33.88
2023-02-15T22:08:41.596Z,33.22
2023-02-15T22:11:13.904Z,31.73
2023-02-15T22:13:42.089Z,30.17
2023-02-15T22:16:22.013Z,32.13
2023-02-15T22:18:49.277Z,29.55
2023-02-15T22:21:19.595Z,29.08
2023-02-15T22:23:47.308Z,30.77
2023-02-15T22:26:25.096Z,28.25
2023-02-15T22:28:52.196Z,27.08
2023-02-15T22:31:21.461Z,27.92
2023-02-15T22:33:49.899Z,28.13
2023-02-15T22:36:30.940Z,25.10
2023-02-15T22:38:57.976Z,25.00
2023-02-15T22:41:29.127Z,22.55
2023-02-15T22:43:57.114Z,23.52
2023-02-15T22:46:25.348Z,23.02
2023-02-15T22:48:52.559Z,22.63
2023-02-15T22:51:23.572Z,23.08
2023-02-15T22:53:52.383Z,65.80
2023-02-15T22:56:26.743Z,65.15
2023-02-15T23:01:31.808Z,23.35
2023-02-15T23:04:01.191Z,23.00
2023-02-15T23:06:29.715Z,23.60
2023-02-15T23:08:57.195Z,24.15
2023-02-15T23:11:24.099Z,25.40
2023-02-15T23:13:51.669Z,25.27
2023-02-15T23:16:18.954Z,24.58
2023-02-15T23:18:47.338Z,26.45
2023-02-15T23:21:32.947Z,23.35
2023-02-15T23:24:15.883Z,23.05
2023-02-15T23:26:42.711Z,21.73
2023-02-15T23:29:14.992Z,22.55
2023-02-15T23:31:44.204Z,23.73
2023-02-15T23:34:17.688Z,21.48
2023-02-15T23:36:45.154Z,23.50
2023-02-15T23:39:36.619Z,20.42
2023-02-15T23:42:26.290Z,21.83
2023-02-15T23:44:53.110Z,21.13
2023-02-15T23:47:44.001Z,18.45
2023-02-15T23:50:20.609Z,21.33
2023-02-15T23:52:48.013Z,19.80
2023-02-15T23:55:15.872Z,19.42
2023-02-15T23:57:44.123Z,18.17
